North Yarmouth, ME

6:03 AM EST on December 25, 2014 (GMT -0500)
North Yarmouth | Change Station
CLOSE
Current Station
Personal Weather Station
Location: North Yarmouth, ME
Elevation: 141 ft
Nearby Weather Stations
Active Advisory: Areal Flood Watch

Elev 141 ft 43.88 °N, 70.23 °W | Updated 6 minutes ago

Fog
Fog
35.2 °F
Feels Like 35 °F
N
0.0
Wind Variable Wind from ESE
Gusts 1.0 mph

Today
High -- | Low -- °F
--% Chance of Precip.
Yesterday
High -- | Low -- °F
Precip. -- in
7:13 AM 4:08 PM
Waxing Crescent, 15% visible
Pressure 29.44 in
Visibility 0.8 miles
Clouds Overcast 400 ft
Windchill 35 °F
Dew Point 35 °F
Humidity 98%
Rainfall 0.00 in
Snow Depth Not available.
UV 0 out of 12
Pollen .10 out of 12
Air Quality Not available.
Flu Activity Not available.
METAR KLEW 251055Z AUTO 00000KT 3/4SM OVC004 02/01 A2944 RMK AO1

More Conditions Fewer Conditions

Pressure 29.44 in
Visibility 0.8 miles
Clouds Overcast 400 ft
Windchill 35 °F
Dew Point 35 °F
Humidity 98%
Rainfall 0.00 in
Snow Depth Not available.
UV 0 out of 12
Pollen .10 out of 12
Air Quality Not available.
Flu Activity Not available.
METAR KLEW 251055Z AUTO 00000KT 3/4SM OVC004 02/01 A2944 RMK AO1

More Conditions Fewer Conditions

10-Day Weather Forecast

Almanac

Astronomy

Dec. 25, 2014 Rise Set
Actual Time
Civil Twilight
Nautical Twilight
Astronomical Twilight
Moon
Length of Visible Light
Length of Day
Tomorrow will be .
, % of the Moon is Illuminated

Today's Extremes

State Highs State Lows

Community

WunderPhotos

Upload Photos

1,780,259 photos uploaded!

WunderBlogs® & News

Nearby

Air Quality

  Air Quality AQ Index Pollutant
Not available.

Snow Depth

Station Depth Elevation

Earthquake Activity

City Distance Mag. Time & Date
Minimum magnitude displayed is 2.5.

Coastal Water Temperatures

Place Temperature

Nearby Weather Stations